Mitchells, Virginia
Current Conditions -  °F | °C
As of 2:35 AM on Wednesday 26 Nov 2014 (Local Time) from KOMH Reporting Station
Drizzle Drizzle  
Wind Chill: 41°   Ceiling: 5500
Heat Index: 45°   Visibility: 10mi
Dew Point: 41°   Wind: 6mph
Humidity: 87%   Direction: 330°NNW
Pressure: 30.1"   Gusts: NA
Location:  38.38°N, 78.03°W
Report Text: KOMH 260735Z AUTO 33005KT 10SM -DZ BKN055 OVC065 07/05 A3010 RMK AO2
Loading
Personal Weather Stations






























Interactive Weather Map New forecast layout! Learn more

10-Day Weather Forecast

Advertisements
Track Severe Weather on mobile